Terminal Aerodrome Forecast
Issued by NWS Sterling, VA

Home | Current Version | Previous Version | Text Only | Print | Product List | Glossary On
Versions: 1 2 3 4 5 6 7 8 9 10 11 12 13 14 15 16 17 18 19 20
000
FTUS41 KLWX 020500
TAFBWI
TAF
KBWI 020532Z 0206/0312 08004KT P6SM -SHRA SCT015 OVC050
     FM020800 06005KT P6SM -SHRA OVC015
     FM021100 05007KT P6SM -SHRA BKN008 OVC015
     FM021200 05007KT P6SM BKN008 OVC015
     FM021500 06007KT P6SM SCT015 OVC025
     FM021900 08007KT P6SM SCT020 OVC050
     FM030000 VRB03KT P6SM SCT030 OVC050
     FM030600 00000KT P6SM BKN015 OVC100=

USA.gov is the U.S. government's official web portal to all federal, state and local government web resources and services.